Time;durP1;ratioP1;P1;durP2;ratioP2;P2;SDS_P1;SDS_P2;PMS_P1;PMS_P2;Temp;Humidity;BMP_temperature;BMP_pressure;BME280_temperature;BME280_humidity;BME280_pressure;Samples;Min_cycle;Max_cycle;Signal;HPM_P1;HPM_P2
2022/11/23 00:00:45;;;;;;;0.00;0.00;;;;;;;16.23;58.49;99616.53;2056071;28;20061;-75
2022/11/23 00:01:48;;;;;;;0.00;0.00;;;;;;;16.23;58.59;99611.09;2060751;28;20043;-75
2022/11/23 00:02:52;;;;;;;0.00;0.00;;;;;;;16.23;58.60;99611.88;2075451;28;20049;-75
2022/11/23 00:03:57;;;;;;;0.00;0.00;;;;;;;16.24;58.71;99615.34;2077491;28;20054;-75
2022/11/23 00:04:59;;;;;;;0.00;0.00;;;;;;;16.22;58.57;99610.31;2070356;28;20101;-75
2022/11/23 00:06:02;;;;;;;0.00;0.00;;;;;;;16.23;58.62;99617.31;2068522;28;20093;-74
2022/11/23 00:07:04;;;;;;;0.00;0.00;;;;;;;16.22;58.70;99615.00;2067790;28;20270;-75
2022/11/23 00:08:08;;;;;;;0.00;0.00;;;;;;;16.23;58.66;99614.59;2072916;28;20615;-74
2022/11/23 00:09:10;;;;;;;0.00;0.00;;;;;;;16.22;58.72;99618.47;2069914;28;20046;-75
2022/11/23 00:10:13;;;;;;;0.00;0.00;;;;;;;16.22;58.67;99615.00;2078166;28;20077;-75
2022/11/23 00:11:15;;;;;;;0.00;0.00;;;;;;;16.21;58.53;99613.44;2075650;28;20100;-75
2022/11/23 00:12:18;;;;;;;0.00;0.00;;;;;;;16.22;58.75;99623.16;2062778;28;20061;-75
2022/11/23 00:13:19;;;;;;;0.00;0.00;;;;;;;16.22;58.64;99615.75;2061648;28;20058;-75
2022/11/23 00:14:22;;;;;;;0.00;0.00;;;;;;;16.22;58.58;99618.47;2068408;28;20057;-75
2022/11/23 00:15:24;;;;;;;0.00;0.00;;;;;;;16.21;58.60;99625.09;2070136;28;20449;-75
2022/11/23 00:16:29;;;;;;;0.00;0.00;;;;;;;16.22;58.67;99621.19;2072762;28;20125;-75
2022/11/23 00:17:32;;;;;;;0.00;0.00;;;;;;;16.21;58.60;99616.94;2070236;28;20072;-74
2022/11/23 00:18:35;;;;;;;0.00;0.00;;;;;;;16.22;58.73;99620.44;2062041;28;20722;-75
2022/11/23 00:19:36;;;;;;;0.00;0.00;;;;;;;16.22;58.55;99620.44;2061663;28;20723;-74
2022/11/23 00:20:40;;;;;;;0.00;0.00;;;;;;;16.22;58.64;99629.38;2072904;28;20050;-74
2022/11/23 00:21:42;;;;;;;0.00;0.00;;;;;;;16.20;58.79;99620.84;2073302;28;20053;-74
2022/11/23 00:22:44;;;;;;;0.00;0.00;;;;;;;16.21;58.78;99611.50;2071084;28;20057;-74
2022/11/23 00:23:49;;;;;;;0.00;0.00;;;;;;;16.22;58.77;99623.91;2069297;28;20071;-73
2022/11/23 00:24:50;;;;;;;0.00;0.00;;;;;;;16.21;58.76;99622.38;2062102;28;20057;-74
2022/11/23 00:25:53;;;;;;;0.00;0.00;;;;;;;16.21;58.70;99625.09;2064452;28;20334;-74
2022/11/23 00:26:55;;;;;;;0.00;0.00;;;;;;;16.21;58.61;99619.66;2069820;28;20061;-74
2022/11/23 00:27:57;;;;;;;0.00;0.00;;;;;;;16.21;58.81;99616.94;2069086;28;20065;-74
2022/11/23 00:29:00;;;;;;;0.00;0.00;;;;;;;16.21;58.56;99619.66;2067714;28;20076;-74
2022/11/23 00:30:03;;;;;;;0.00;0.00;;;;;;;16.20;58.74;99620.84;2077002;28;20124;-74
2022/11/23 00:31:06;;;;;;;0.00;0.00;;;;;;;16.21;58.59;99624.34;2074941;28;20437;-75
2022/11/23 00:32:07;;;;;;;0.00;0.00;;;;;;;16.21;58.69;99621.59;2068534;28;20050;-75
2022/11/23 00:33:12;;;;;;;0.00;0.00;;;;;;;16.20;58.73;99618.13;2073486;28;20054;-75
2022/11/23 00:34:15;;;;;;;0.00;0.00;;;;;;;16.21;58.70;99624.34;2075913;28;20155;-75
2022/11/23 00:35:17;;;;;;;0.00;0.00;;;;;;;16.20;58.58;99620.06;2084882;28;20529;-75
2022/11/23 00:36:20;;;;;;;0.00;0.00;;;;;;;16.20;58.63;99620.84;2081647;28;20464;-75
2022/11/23 00:37:23;;;;;;;0.00;0.00;;;;;;;16.21;58.61;99621.59;2071768;28;20053;-75
2022/11/23 00:38:25;;;;;;;0.00;0.00;;;;;;;16.20;58.63;99617.34;2065916;28;20105;-75
2022/11/23 00:39:29;;;;;;;0.00;0.00;;;;;;;16.20;58.76;99618.13;2075126;28;20105;-75
2022/11/23 00:40:31;;;;;;;0.00;0.00;;;;;;;16.20;58.75;99615.41;2075801;28;20050;-75
2022/11/23 00:41:34;;;;;;;0.00;0.00;;;;;;;16.19;58.33;99616.56;2069685;28;20125;-75
2022/11/23 00:42:36;;;;;;;0.00;0.00;;;;;;;16.20;58.75;99611.91;2063835;28;20058;-74
2022/11/23 00:43:40;;;;;;;0.00;0.00;;;;;;;16.20;58.74;99612.69;2055330;28;20042;-75
2022/11/23 00:44:42;;;;;;;0.00;0.00;;;;;;;16.19;58.85;99616.56;2050879;28;20054;-74
2022/11/23 00:45:44;;;;;;;0.00;0.00;;;;;;;16.19;58.48;99616.56;2059474;28;20109;-74
2022/11/23 00:46:46;;;;;;;0.00;0.00;;;;;;;16.19;58.78;99619.28;2070616;28;20057;-75
2022/11/23 00:47:49;;;;;;;0.00;0.00;;;;;;;16.19;58.70;99621.22;2071535;28;20502;-74
2022/11/23 00:48:52;;;;;;;0.00;0.00;;;;;;;16.20;58.71;99622.78;2081635;28;20057;-74
2022/11/23 00:49:56;;;;;;;0.00;0.00;;;;;;;16.18;58.73;99620.47;2070060;28;20053;-74
2022/11/23 00:50:59;;;;;;;0.00;0.00;;;;;;;16.19;58.71;99622.00;2062047;28;20058;-75
2022/11/23 00:52:02;;;;;;;0.00;0.00;;;;;;;16.18;58.82;99625.16;2066859;28;20552;-74
2022/11/23 00:53:04;;;;;;;0.00;0.00;;;;;;;16.18;58.80;99620.47;2056031;28;20085;-74
2022/11/23 00:54:08;;;;;;;0.00;0.00;;;;;;;16.19;58.73;99621.22;2061270;28;20193;-74
2022/11/23 00:55:11;;;;;;;0.00;0.00;;;;;;;16.18;58.66;99620.47;2061015;28;20096;-74
2022/11/23 00:56:14;;;;;;;0.05;0.05;;;;;;;16.18;58.71;99620.47;2056670;28;20054;-74
2022/11/23 00:57:15;;;;;;;0.00;0.00;;;;;;;16.19;58.75;99610.34;2060929;28;20048;-73
2022/11/23 00:58:19;;;;;;;0.00;0.00;;;;;;;16.19;58.73;99608.41;2069508;28;20054;-74
2022/11/23 00:59:21;;;;;;;0.00;0.00;;;;;;;16.18;58.63;99615.03;2063631;28;20062;-75
2022/11/23 01:00:24;;;;;;;0.00;0.00;;;;;;;16.19;58.74;99610.34;2064665;28;20062;-74
2022/11/23 01:01:28;;;;;;;0.00;0.00;;;;;;;16.16;58.57;99606.50;2076019;28;20092;-75
2022/11/23 01:02:31;;;;;;;0.00;0.00;;;;;;;16.18;58.83;99614.25;2072914;28;20103;-75
2022/11/23 01:03:34;;;;;;;0.00;0.00;;;;;;;16.18;58.71;99614.25;2075960;28;20041;-74
2022/11/23 01:04:38;;;;;;;0.00;0.00;;;;;;;16.18;58.71;99608.81;2068631;28;20058;-76
2022/11/23 01:05:40;;;;;;;0.00;0.00;;;;;;;16.17;58.81;99610.75;2067729;28;20069;-75
2022/11/23 01:06:43;;;;;;;0.00;0.00;;;;;;;16.17;58.72;99608.03;2083887;28;20060;-75
2022/11/23 01:07:45;;;;;;;0.00;0.00;;;;;;;16.17;58.83;99608.03;2071291;28;20151;-75
2022/11/23 01:08:49;;;;;;;0.00;0.00;;;;;;;16.18;58.96;99603.34;2067754;28;20038;-75
2022/11/23 01:09:51;;;;;;;0.00;0.00;;;;;;;16.17;58.88;99616.19;2068658;28;20113;-75
2022/11/23 01:10:59;;;;;;;0.00;0.00;;;;;;;16.17;58.87;99608.03;2068447;28;20080;-75
2022/11/23 01:12:01;;;;;;;0.00;0.00;;;;;;;16.15;58.83;99615.84;2068213;28;20058;-75
2022/11/23 01:13:03;;;;;;;0.00;0.00;;;;;;;16.16;58.69;99622.06;2067428;28;20069;-75
2022/11/23 01:14:06;;;;;;;0.00;0.00;;;;;;;16.16;58.82;99620.09;2069788;28;20046;-75
2022/11/23 01:15:08;;;;;;;0.00;0.00;;;;;;;16.16;58.74;99625.56;2077176;28;20056;-75
2022/11/23 01:16:16;;;;;;;0.00;0.00;;;;;;;16.17;58.65;99624.38;2077336;28;20056;-74
2022/11/23 01:17:24;;;;;;;0.00;0.00;;;;;;;16.14;58.89;99627.16;2068270;28;20148;-74
2022/11/23 01:18:27;;;;;;;0.00;0.00;;;;;;;16.16;59.07;99630.22;2075126;28;20089;-74
2022/11/23 01:19:29;;;;;;;0.00;0.00;;;;;;;16.14;58.40;99630.63;2069079;28;20780;-75
2022/11/23 01:20:34;;;;;;;0.00;0.00;;;;;;;16.17;58.73;99634.50;2068104;28;20493;-74
2022/11/23 01:21:36;;;;;;;0.00;0.00;;;;;;;16.15;58.84;99632.19;2077182;28;20464;-72
2022/11/23 01:22:41;;;;;;;0.00;0.00;;;;;;;16.15;58.89;99634.91;2068342;28;20488;-73
2022/11/23 01:23:43;;;;;;;0.00;0.00;;;;;;;16.15;58.79;99634.13;2062110;28;20089;-73
2022/11/23 01:24:46;;;;;;;0.00;0.00;;;;;;;16.15;58.89;99631.41;2069854;28;20061;-74
2022/11/23 01:25:47;;;;;;;0.00;0.00;;;;;;;16.15;58.81;99642.31;2075392;28;20052;-73
2022/11/23 01:26:57;;;;;;;0.00;0.00;;;;;;;16.15;58.76;99637.63;2075290;28;20113;-73
2022/11/23 01:28:00;;;;;;;0.00;0.00;;;;;;;16.12;58.81;99627.56;2076134;28;20045;-74
2022/11/23 01:29:03;;;;;;;0.00;0.00;;;;;;;16.15;58.90;99636.84;2073832;28;20050;-73
2022/11/23 01:30:06;;;;;;;0.00;0.00;;;;;;;16.15;58.79;99637.63;2083443;28;20048;-74
2022/11/23 01:31:11;;;;;;;0.00;0.00;;;;;;;16.16;58.88;99632.94;2081791;28;20061;-74
2022/11/23 01:32:14;;;;;;;0.00;0.00;;;;;;;16.14;58.96;99636.06;2082914;28;20049;-74
2022/11/23 01:33:16;;;;;;;0.00;0.00;;;;;;;16.15;58.79;99634.13;2069355;28;20057;-74
2022/11/23 01:34:18;;;;;;;0.00;0.00;;;;;;;16.15;58.78;99640.34;2077476;28;20053;-74
2022/11/23 01:35:20;;;;;;;0.00;0.00;;;;;;;16.14;58.77;99644.25;2074886;28;20115;-74
2022/11/23 01:36:25;;;;;;;0.00;0.00;;;;;;;16.16;58.91;99643.84;2081900;28;20135;-74
2022/11/23 01:37:27;;;;;;;0.00;0.00;;;;;;;16.14;58.79;99641.53;2081712;28;20079;-74
2022/11/23 01:38:29;;;;;;;0.00;0.00;;;;;;;16.14;58.87;99641.53;2079680;28;20119;-74
2022/11/23 01:39:32;;;;;;;0.00;0.00;;;;;;;16.14;58.90;99646.97;2068722;28;20046;-74
2022/11/23 01:40:41;;;;;;;0.00;0.00;;;;;;;16.12;58.90;99638.44;2071239;28;20115;-74
2022/11/23 01:41:44;;;;;;;0.00;0.00;;;;;;;16.13;58.86;99645.44;2083747;28;20529;-74
2022/11/23 01:42:53;;;;;;;0.00;0.00;;;;;;;16.12;58.93;99643.13;2076757;28;20057;-73
2022/11/23 01:43:55;;;;;;;0.00;0.00;;;;;;;16.12;58.68;99649.34;2076278;28;20065;-74
2022/11/23 01:45:29;;;;;;;0.00;0.00;;;;;;;16.05;58.85;99641.25;2076540;28;20091;-74
2022/11/23 01:46:32;;;;;;;0.00;0.00;;;;;;;16.05;59.03;99641.25;2075299;28;20068;-74
2022/11/23 01:47:34;;;;;;;0.00;0.00;;;;;;;16.10;58.82;99651.69;2075905;28;20056;-73
2022/11/23 01:48:40;;;;;;;0.00;0.00;;;;;;;16.12;58.80;99654.00;2069137;28;20046;-74
2022/11/23 01:49:46;;;;;;;0.00;0.00;;;;;;;16.10;59.07;99654.41;2068620;28;20437;-74
2022/11/23 01:51:09;;;;;;;0.00;0.00;;;;;;;16.02;59.10;99647.50;2076618;28;20140;-76
2022/11/23 01:52:15;;;;;;;0.00;0.00;;;;;;;16.08;58.94;99653.25;2084078;28;20049;-74
2022/11/23 01:53:18;;;;;;;0.00;0.00;;;;;;;16.09;58.89;99654.81;2076049;28;20046;-74
2022/11/23 01:54:28;;;;;;;0.00;0.00;;;;;;;16.09;58.85;99650.13;2067327;28;20049;-74
2022/11/23 01:55:30;;;;;;;0.00;0.00;;;;;;;16.08;59.08;99654.03;2069140;28;20054;-74
2022/11/23 01:56:37;;;;;;;0.00;0.00;;;;;;;16.09;58.82;99646.66;2086315;28;20041;-74
2022/11/23 01:57:41;;;;;;;0.00;0.00;;;;;;;16.08;58.88;99645.88;2077756;28;20049;-74
2022/11/23 01:58:50;;;;;;;0.00;0.00;;;;;;;16.09;58.81;99652.84;2075810;28;20054;-74
2022/11/23 01:59:54;;;;;;;0.00;0.00;;;;;;;16.08;59.29;99650.53;2078431;28;20175;-74
2022/11/23 02:00:58;;;;;;;0.00;0.00;;;;;;;16.10;59.11;99656.34;2066589;28;20062;-74
2022/11/23 02:02:00;;;;;;;0.00;0.00;;;;;;;16.10;58.97;99650.91;2067936;28;20097;-74
2022/11/23 02:03:05;;;;;;;0.03;0.03;;;;;;;16.10;59.12;99651.69;2061271;28;20058;-74
2022/11/23 02:04:11;;;;;;;0.00;0.00;;;;;;;16.10;59.36;99651.69;2058226;28;20081;-74
2022/11/23 02:05:21;;;;;;;0.00;0.00;;;;;;;16.08;59.07;99659.47;2065293;28;20108;-74
2022/11/23 02:06:23;;;;;;;0.00;0.00;;;;;;;16.05;58.97;99646.69;2071626;28;20050;-74
2022/11/23 02:07:26;;;;;;;0.00;0.00;;;;;;;16.09;59.06;99649.38;2059641;28;20057;-74
2022/11/23 02:08:28;;;;;;;0.00;0.00;;;;;;;16.09;59.35;99654.81;2061576;28;20078;-73
2022/11/23 02:09:33;;;;;;;0.00;0.00;;;;;;;16.09;59.06;99647.41;2067569;28;20068;-74
2022/11/23 02:10:35;;;;;;;0.00;0.00;;;;;;;16.09;58.86;99658.28;2063121;28;20201;-74
2022/11/23 02:11:38;;;;;;;0.00;0.00;;;;;;;16.09;59.08;99652.84;2060925;28;20058;-73
2022/11/23 02:12:40;;;;;;;0.00;0.00;;;;;;;16.09;58.91;99649.38;2067302;28;20056;-74
2022/11/23 02:13:47;;;;;;;0.00;0.00;;;;;;;16.10;58.94;99657.13;2067043;28;20070;-74
2022/11/23 02:14:50;;;;;;;0.00;0.00;;;;;;;16.09;59.12;99650.13;2069521;28;20065;-74
2022/11/23 02:15:55;;;;;;;0.00;0.00;;;;;;;16.09;59.09;99655.56;2060184;28;20078;-74
2022/11/23 02:16:57;;;;;;;0.00;0.00;;;;;;;16.09;58.82;99661.03;2062438;28;20051;-75
2022/11/23 02:18:04;;;;;;;0.00;0.00;;;;;;;16.08;58.95;99654.03;2057429;28;20054;-75
2022/11/23 02:19:12;;;;;;;0.00;0.00;;;;;;;16.07;59.18;99652.50;2059589;28;20042;-73
2022/11/23 02:20:18;;;;;;;0.00;0.00;;;;;;;16.09;58.91;99661.03;2068971;28;20051;-74
2022/11/23 02:21:23;;;;;;;0.00;0.00;;;;;;;16.07;58.92;99662.63;2063027;28;20169;-75
2022/11/23 02:22:31;;;;;;;0.00;0.00;;;;;;;16.08;59.01;99664.94;2071706;28;20054;-75
2022/11/23 02:23:43;;;;;;;0.00;0.00;;;;;;;16.06;59.02;99661.09;2074385;28;20050;-73
2022/11/23 02:24:53;;;;;;;0.00;0.00;;;;;;;16.06;58.79;99652.91;2063366;28;20513;-74
2022/11/23 02:26:00;;;;;;;0.00;0.00;;;;;;;16.04;58.95;99664.22;2065280;28;20054;-75
2022/11/23 02:27:05;;;;;;;0.00;0.00;;;;;;;16.05;58.99;99657.56;2074386;28;20057;-75
2022/11/23 02:28:08;;;;;;;0.00;0.00;;;;;;;16.06;59.02;99661.84;2073331;28;20552;-75
2022/11/23 02:29:18;;;;;;;0.00;0.00;;;;;;;16.07;59.10;99657.16;2059578;28;20054;-75
2022/11/23 02:30:20;;;;;;;0.05;0.05;;;;;;;16.06;59.13;99658.34;2070511;28;20054;-75
2022/11/23 02:31:23;;;;;;;0.00;0.00;;;;;;;16.07;58.95;99657.16;2073385;28;20516;-74
2022/11/23 02:32:28;;;;;;;0.00;0.00;;;;;;;16.05;58.91;99646.69;2065114;28;20054;-74
2022/11/23 02:33:31;;;;;;;0.00;0.00;;;;;;;16.06;58.97;99650.94;2069457;28;20065;-75
2022/11/23 02:34:33;;;;;;;0.05;0.05;;;;;;;16.06;59.10;99652.91;2078837;28;20065;-73
2022/11/23 02:35:35;;;;;;;0.00;0.00;;;;;;;16.06;59.11;99653.66;2084559;28;20053;-74
2022/11/23 02:36:40;;;;;;;0.00;0.00;;;;;;;16.07;59.09;99655.22;2065786;28;20057;-73
2022/11/23 02:37:43;;;;;;;0.00;0.00;;;;;;;16.05;59.16;99652.13;2062921;28;20045;-75
2022/11/23 02:38:47;;;;;;;0.00;0.00;;;;;;;16.07;59.03;99652.50;2070463;28;20103;-74
2022/11/23 02:39:53;;;;;;;0.10;0.10;;;;;;;16.07;59.04;99651.72;2065501;28;20062;-74
2022/11/23 02:40:55;;;;;;;0.00;0.00;;;;;;;16.05;59.19;99648.63;2069698;28;20575;-74
2022/11/23 02:42:00;;;;;;;0.00;0.00;;;;;;;16.07;59.08;99668.06;2075697;28;20057;-74
2022/11/23 02:43:02;;;;;;;0.00;0.00;;;;;;;16.05;59.09;99660.31;2075434;28;20049;-74
2022/11/23 02:44:09;;;;;;;0.00;0.00;;;;;;;16.07;59.08;99654.44;2076635;28;20057;-75
2022/11/23 02:45:20;;;;;;;0.00;0.00;;;;;;;16.05;58.98;99654.84;2069456;28;20077;-74
2022/11/23 02:46:23;;;;;;;0.00;0.00;;;;;;;16.04;59.10;99653.31;2070104;28;20895;-75
2022/11/23 02:47:25;;;;;;;0.00;0.00;;;;;;;16.04;58.96;99653.31;2061930;28;20222;-75
2022/11/23 02:48:27;;;;;;;0.00;0.00;;;;;;;16.05;59.14;99662.25;2062255;28;20050;-75
2022/11/23 02:49:30;;;;;;;0.00;0.00;;;;;;;16.05;58.99;99657.56;2062962;28;20081;-75
2022/11/23 02:50:32;;;;;;;0.00;0.00;;;;;;;16.05;58.98;99662.25;2063791;28;20521;-75
2022/11/23 02:51:35;;;;;;;0.00;0.00;;;;;;;16.04;59.23;99658.75;2070385;28;20555;-75
2022/11/23 02:52:37;;;;;;;0.00;0.00;;;;;;;16.05;58.91;99659.53;2062946;28;20754;-75
2022/11/23 02:53:39;;;;;;;0.00;0.00;;;;;;;16.04;59.12;99656.03;2063610;28;20057;-75
2022/11/23 02:54:43;;;;;;;0.00;0.00;;;;;;;16.04;58.96;99657.97;2062584;28;20054;-75
2022/11/23 02:55:47;;;;;;;0.00;0.00;;;;;;;16.05;59.09;99667.69;2070549;28;20045;-75
2022/11/23 02:56:54;;;;;;;0.00;0.00;;;;;;;16.04;59.12;99653.31;2067470;28;20057;-75
2022/11/23 02:57:58;;;;;;;0.00;0.00;;;;;;;16.04;59.09;99653.31;2058196;28;20050;-76
2022/11/23 02:59:00;;;;;;;0.00;0.00;;;;;;;16.04;59.12;99653.31;2062931;28;20564;-74
2022/11/23 03:00:05;;;;;;;0.00;0.00;;;;;;;16.05;59.08;99663.03;2068919;28;20053;-75
2022/11/23 03:01:07;;;;;;;0.00;0.00;;;;;;;16.04;59.19;99650.59;2056211;28;20100;-75
2022/11/23 03:02:10;;;;;;;0.00;0.00;;;;;;;16.04;59.05;99658.75;2065455;28;20054;-74
2022/11/23 03:03:12;;;;;;;0.00;0.00;;;;;;;16.03;59.21;99649.03;2066774;28;20050;-75
2022/11/23 03:04:15;;;;;;;0.00;0.00;;;;;;;16.05;58.99;99643.19;2054986;28;20054;-75
2022/11/23 03:05:18;;;;;;;0.00;0.00;;;;;;;16.04;58.96;99638.94;2064312;28;20542;-75
2022/11/23 03:06:26;;;;;;;0.00;0.00;;;;;;;16.03;59.16;99640.13;2057908;28;20054;-75
2022/11/23 03:07:28;;;;;;;0.00;0.00;;;;;;;16.03;59.05;99640.88;2063683;28;20726;-75
2022/11/23 03:08:32;;;;;;;0.00;0.00;;;;;;;16.02;59.31;99642.06;2061310;28;20051;-75
2022/11/23 03:09:34;;;;;;;0.00;0.00;;;;;;;16.03;59.03;99646.31;2062060;28;20057;-75
2022/11/23 03:10:39;;;;;;;0.00;0.00;;;;;;;16.04;59.05;99650.59;2061649;28;20104;-75
2022/11/23 03:11:41;;;;;;;0.00;0.00;;;;;;;16.04;59.22;99649.81;2063223;28;20481;-75
2022/11/23 03:12:44;;;;;;;0.00;0.00;;;;;;;16.03;59.27;99654.47;2067502;28;20121;-75
2022/11/23 03:13:49;;;;;;;0.00;0.00;;;;;;;16.04;59.20;99647.88;2071043;28;20091;-76
2022/11/23 03:14:55;;;;;;;0.00;0.00;;;;;;;16.03;59.04;99651.00;2070413;28;20824;-75
2022/11/23 03:15:58;;;;;;;0.00;0.00;;;;;;;16.02;59.07;99650.22;2066656;28;20692;-75
2022/11/23 03:17:01;;;;;;;0.00;0.00;;;;;;;16.03;59.16;99649.03;2060527;28;20069;-75
2022/11/23 03:18:08;;;;;;;0.00;0.00;;;;;;;16.02;59.27;99650.22;2051891;28;20055;-75
2022/11/23 03:19:11;;;;;;;0.00;0.00;;;;;;;16.02;59.22;99644.78;2062501;28;20061;-75
2022/11/23 03:20:14;;;;;;;0.00;0.00;;;;;;;16.02;59.07;99644.78;2067225;28;20049;-75
2022/11/23 03:21:19;;;;;;;0.00;0.00;;;;;;;16.02;59.10;99655.66;2056543;28;20100;-75
2022/11/23 03:22:23;;;;;;;0.00;0.00;;;;;;;16.02;59.13;99650.22;2057855;28;20054;-75
2022/11/23 03:23:27;;;;;;;0.00;0.00;;;;;;;16.02;58.92;99654.88;2063496;28;20050;-75
2022/11/23 03:24:30;;;;;;;0.00;0.00;;;;;;;16.02;59.20;99658.38;2055436;28;20086;-74
2022/11/23 03:25:33;;;;;;;0.00;0.00;;;;;;;16.02;59.11;99663.84;2058899;28;20086;-75
2022/11/23 03:26:37;;;;;;;0.00;0.00;;;;;;;16.01;59.14;99665.03;2064874;28;20140;-73
2022/11/23 03:27:44;;;;;;;0.00;0.00;;;;;;;16.01;59.28;99665.03;2071716;28;20049;-76
2022/11/23 03:28:46;;;;;;;0.00;0.00;;;;;;;16.01;59.29;99662.31;2059582;28;20054;-75
2022/11/23 03:29:51;;;;;;;0.00;0.00;;;;;;;16.03;59.17;99668.09;2051760;28;20051;-75
2022/11/23 03:30:54;;;;;;;0.00;0.00;;;;;;;16.01;59.04;99670.47;2067644;28;20054;-75
2022/11/23 03:31:57;;;;;;;0.00;0.00;;;;;;;16.01;58.98;99667.75;2072104;28;20139;-75
2022/11/23 03:32:59;;;;;;;0.00;0.00;;;;;;;16.01;59.12;99673.19;2062096;28;20054;-75
2022/11/23 03:34:02;;;;;;;0.00;0.00;;;;;;;16.02;59.11;99677.44;2054437;28;20153;-76
2022/11/23 03:35:06;;;;;;;0.00;0.00;;;;;;;16.01;59.03;99681.34;2058114;28;20563;-75
2022/11/23 03:36:13;;;;;;;0.00;0.00;;;;;;;16.00;59.04;99679.78;2056674;28;20050;-76
2022/11/23 03:37:19;;;;;;;0.00;0.00;;;;;;;16.01;59.12;99680.56;2065294;28;20073;-75
2022/11/23 03:38:21;;;;;;;0.00;0.00;;;;;;;16.00;59.26;99682.53;2060606;28;20477;-75
2022/11/23 03:39:24;;;;;;;0.00;0.00;;;;;;;16.01;59.18;99681.34;2050900;28;20047;-75
2022/11/23 03:40:26;;;;;;;0.00;0.00;;;;;;;16.01;59.16;99681.34;2063199;28;20069;-75
2022/11/23 03:41:46;;;;;;;0.10;0.10;;;;;;;15.98;59.31;99687.59;2069199;28;20050;-75
2022/11/23 03:42:48;;;;;;;0.00;0.00;;;;;;;16.00;59.28;99684.47;2060990;28;20050;-75
2022/11/23 03:43:51;;;;;;;0.00;0.00;;;;;;;16.00;59.25;99682.53;2053852;28;20055;-75
2022/11/23 03:44:55;;;;;;;0.00;0.00;;;;;;;16.00;59.15;99682.53;2061794;28;20061;-74
2022/11/23 03:45:57;;;;;;;0.00;0.00;;;;;;;15.99;59.08;99680.97;2068274;28;20062;-75
2022/11/23 03:46:59;;;;;;;0.00;0.00;;;;;;;15.99;59.21;99678.25;2069327;28;20534;-75
2022/11/23 03:48:03;;;;;;;0.00;0.00;;;;;;;16.00;59.08;99685.25;2069346;28;20081;-76
2022/11/23 03:49:05;;;;;;;0.00;0.00;;;;;;;16.00;59.39;99684.47;2055029;28;20404;-76
2022/11/23 03:50:09;;;;;;;0.00;0.00;;;;;;;16.00;59.27;99677.06;2051852;28;20051;-76
2022/11/23 03:51:11;;;;;;;0.00;0.00;;;;;;;15.99;59.25;99678.25;2051693;28;20170;-76
2022/11/23 03:52:14;;;;;;;0.00;0.00;;;;;;;16.00;59.05;99679.00;2055789;28;20451;-76
2022/11/23 03:53:18;;;;;;;0.10;0.10;;;;;;;16.00;59.13;99682.53;2055301;28;20055;-75
2022/11/23 03:54:21;;;;;;;0.00;0.00;;;;;;;16.00;59.21;99684.47;2061802;28;20050;-76
2022/11/23 03:55:23;;;;;;;0.00;0.00;;;;;;;15.99;59.24;99675.53;2068917;28;20081;-75
2022/11/23 03:56:28;;;;;;;0.00;0.00;;;;;;;16.00;59.04;99679.78;2073130;28;20054;-76
2022/11/23 03:57:30;;;;;;;0.00;0.00;;;;;;;15.99;59.17;99686.44;2067199;28;20050;-75
2022/11/23 03:58:35;;;;;;;0.00;0.00;;;;;;;15.99;59.09;99689.16;2058996;28;20145;-75
2022/11/23 03:59:41;;;;;;;0.00;0.00;;;;;;;15.98;59.19;99690.31;2056002;28;20046;-75
2022/11/23 04:00:45;;;;;;;0.00;0.00;;;;;;;16.00;59.60;99684.47;2063154;28;20517;-75
2022/11/23 04:01:49;;;;;;;0.00;0.00;;;;;;;15.98;59.35;99697.72;2070765;28;20109;-75
2022/11/23 04:02:57;;;;;;;0.00;0.00;;;;;;;15.97;59.20;99694.22;2070415;28;20054;-75
2022/11/23 04:04:17;;;;;;;0.00;0.00;;;;;;;15.95;59.31;99698.53;2078413;28;20091;-75
2022/11/23 04:05:32;;;;;;;0.10;0.10;;;;;;;15.95;59.48;99702.00;2074044;28;20056;-76
2022/11/23 04:07:08;;;;;;;0.00;0.00;;;;;;;15.90;59.51;99697.00;2071862;28;20184;-76
2022/11/23 04:08:15;;;;;;;0.00;0.00;;;;;;;15.92;59.31;99700.09;2061395;28;20058;-76
2022/11/23 04:09:17;;;;;;;0.00;0.00;;;;;;;15.94;59.49;99700.47;2067472;28;20489;-75
2022/11/23 04:10:40;;;;;;;0.00;0.00;;;;;;;15.91;59.46;99698.56;2077586;28;20511;-76
2022/11/23 04:11:56;;;;;;;0.00;0.00;;;;;;;15.91;59.26;99687.66;2067522;28;20043;-76
2022/11/23 04:12:58;;;;;;;0.00;0.00;;;;;;;15.92;59.38;99683.75;2062403;28;20116;-75
2022/11/23 04:14:02;;;;;;;0.00;0.00;;;;;;;15.93;59.25;99685.31;2071898;28;20060;-76
2022/11/23 04:15:05;;;;;;;0.00;0.00;;;;;;;15.94;59.39;99695.03;2078261;28;20057;-75
2022/11/23 04:16:09;;;;;;;0.20;0.20;;;;;;;15.95;59.21;99682.94;2077233;28;20065;-75
2022/11/23 04:17:11;;;;;;;0.00;0.00;;;;;;;15.95;59.23;99687.63;2083208;28;20057;-75
2022/11/23 04:18:14;;;;;;;0.00;0.00;;;;;;;15.95;59.35;99690.38;2071846;28;20052;-74
2022/11/23 04:19:16;;;;;;;0.00;0.00;;;;;;;15.95;59.43;99693.09;2061017;28;20054;-75
2022/11/23 04:20:19;;;;;;;0.00;0.00;;;;;;;15.95;59.22;99693.84;2072748;28;20065;-75
2022/11/23 04:21:22;;;;;;;0.00;0.00;;;;;;;15.95;59.26;99684.91;2077402;28;20045;-75
2022/11/23 04:22:24;;;;;;;0.00;0.00;;;;;;;15.95;59.29;99693.09;2071232;28;20058;-75
2022/11/23 04:23:26;;;;;;;0.00;0.00;;;;;;;15.94;59.39;99694.25;2070597;28;20057;-75
2022/11/23 04:24:29;;;;;;;0.00;0.00;;;;;;;15.95;59.27;99682.94;2063945;28;20049;-75
2022/11/23 04:25:33;;;;;;;0.00;0.00;;;;;;;15.95;59.27;99682.94;2062512;28;20141;-75
2022/11/23 04:26:39;;;;;;;0.00;0.00;;;;;;;15.95;59.40;99685.69;2063775;28;20088;-75
2022/11/23 04:27:42;;;;;;;0.00;0.00;;;;;;;15.94;59.41;99686.84;2065396;28;20104;-75
2022/11/23 04:28:45;;;;;;;0.00;0.00;;;;;;;15.95;59.38;99691.13;2077995;28;20144;-75
2022/11/23 04:29:47;;;;;;;0.00;0.00;;;;;;;15.95;59.32;99688.41;2075152;28;20072;-75
2022/11/23 04:30:50;;;;;;;0.00;0.00;;;;;;;15.95;59.29;99682.94;2074553;28;20429;-75
2022/11/23 04:31:53;;;;;;;0.00;0.00;;;;;;;15.96;59.28;99686.47;2063112;28;20055;-75
2022/11/23 04:32:57;;;;;;;0.00;0.00;;;;;;;15.96;59.34;99689.19;2061203;28;20054;-75
2022/11/23 04:34:00;;;;;;;0.00;0.00;;;;;;;15.94;59.42;99686.84;2064504;28;20085;-75
2022/11/23 04:35:03;;;;;;;0.00;0.00;;;;;;;15.96;59.21;99686.47;2061550;28;20591;-75
2022/11/23 04:36:06;;;;;;;0.00;0.00;;;;;;;15.95;59.27;99688.41;2073465;28;20601;-75
2022/11/23 04:37:10;;;;;;;0.00;0.00;;;;;;;15.95;59.41;99682.94;2076743;28;20149;-74
2022/11/23 04:38:16;;;;;;;0.00;0.00;;;;;;;15.94;59.41;99684.13;2069756;28;20170;-74
2022/11/23 04:39:19;;;;;;;0.00;0.00;;;;;;;15.94;59.29;99689.59;2077081;28;20766;-74
2022/11/23 04:40:40;;;;;;;0.00;0.00;;;;;;;15.90;59.51;99691.56;2077404;28;20057;-74
2022/11/23 04:41:42;;;;;;;0.00;0.00;;;;;;;15.93;59.42;99692.72;2062370;28;20050;-74
2022/11/23 04:42:44;;;;;;;0.00;0.00;;;;;;;15.94;59.39;99689.59;2069442;28;20177;-74
2022/11/23 04:43:48;;;;;;;0.00;0.00;;;;;;;15.94;59.29;99695.03;2069844;28;20061;-74
2022/11/23 04:44:50;;;;;;;0.00;0.00;;;;;;;15.94;59.24;99686.84;2068328;28;20050;-74
2022/11/23 04:45:52;;;;;;;0.10;0.10;;;;;;;15.94;59.39;99688.81;2063090;28;20594;-74
2022/11/23 04:47:03;;;;;;;0.00;0.00;;;;;;;15.94;59.29;99692.31;2064914;28;20606;-74
2022/11/23 04:48:08;;;;;;;0.00;0.00;;;;;;;15.93;59.32;99685.31;2064635;28;20053;-74
2022/11/23 04:49:12;;;;;;;0.10;0.10;;;;;;;15.93;59.43;99693.50;2064596;28;20727;-74
2022/11/23 04:50:14;;;;;;;0.03;0.03;;;;;;;15.94;59.38;99692.31;2059885;28;20061;-74
2022/11/23 04:51:21;;;;;;;0.00;0.00;;;;;;;15.91;59.35;99687.66;2062167;28;20559;-74
2022/11/23 04:52:23;;;;;;;0.00;0.00;;;;;;;15.94;59.34;99686.84;2060300;28;20769;-74
2022/11/23 04:53:25;;;;;;;0.00;0.00;;;;;;;15.95;59.43;99687.63;2078507;28;20083;-73
2022/11/23 04:54:28;;;;;;;0.00;0.00;;;;;;;15.94;59.37;99695.03;2070573;28;20073;-74
2022/11/23 04:55:33;;;;;;;0.00;0.00;;;;;;;15.94;59.12;99696.97;2060506;28;20053;-73
2022/11/23 04:56:36;;;;;;;0.00;0.00;;;;;;;15.93;59.38;99693.50;2058832;28;20108;-73
2022/11/23 04:57:39;;;;;;;0.00;0.00;;;;;;;15.94;59.35;99692.31;2061168;28;20050;-73
2022/11/23 04:58:41;;;;;;;0.00;0.00;;;;;;;15.94;59.45;99691.53;2068224;28;20452;-73
2022/11/23 04:59:43;;;;;;;0.00;0.00;;;;;;;15.95;59.22;99698.53;2087585;28;20412;-73
2022/11/23 05:00:45;;;;;;;0.00;0.00;;;;;;;15.94;59.28;99688.81;2069347;28;20049;-73
2022/11/23 05:01:51;;;;;;;0.00;0.00;;;;;;;15.94;59.25;99681.41;2056689;28;20053;-73
2022/11/23 05:03:15;;;;;;;0.00;0.00;;;;;;;15.91;59.45;99690.38;2072867;28;20044;-73